createdAt,value
2019-05-03T00:02:06.617Z,27.48
2019-05-03T00:04:38.404Z,28.45
2019-05-03T00:07:08.674Z,31.73
2019-05-03T00:09:39.001Z,26.97
2019-05-03T00:12:09.767Z,24.87
2019-05-03T00:14:41.711Z,28.38
2019-05-03T00:17:11.918Z,25.65
2019-05-03T00:19:42.310Z,24.37
2019-05-03T00:22:12.466Z,29.35
2019-05-03T00:24:43.099Z,28.47
2019-05-03T00:27:12.881Z,25.15
2019-05-03T00:29:43.930Z,29.95
2019-05-03T00:32:14.737Z,31.87
2019-05-03T00:34:49.196Z,27.90
2019-05-03T00:37:22.095Z,24.75
2019-05-03T00:40:05.047Z,25.90
2019-05-03T00:42:34.882Z,30.82
2019-05-03T00:45:07.550Z,29.18
2019-05-03T00:47:37.349Z,29.52
2019-05-03T00:50:07.572Z,23.50
2019-05-03T00:52:37.353Z,32.33
2019-05-03T00:55:16.326Z,27.85
2019-05-03T00:57:41.493Z,25.97
2019-05-03T01:00:12.487Z,22.22
2019-05-03T01:02:43.126Z,26.10
2019-05-03T01:05:12.972Z,26.70
2019-05-03T01:07:42.765Z,26.73
2019-05-03T01:10:13.559Z,25.90
2019-05-03T01:12:44.026Z,28.30
2019-05-03T01:15:18.854Z,26.75
2019-05-03T01:17:49.545Z,26.85
2019-05-03T01:20:19.332Z,26.95
2019-05-03T01:22:49.134Z,25.57
2019-05-03T01:25:29.053Z,22.50
2019-05-03T01:27:52.135Z,21.82
2019-05-03T01:30:22.752Z,26.00
2019-05-03T01:32:52.587Z,24.70
2019-05-03T01:35:22.367Z,28.73
2019-05-03T01:37:52.702Z,19.35
2019-05-03T01:40:22.523Z,22.75
2019-05-03T01:42:52.325Z,22.50
2019-05-03T01:45:22.965Z,23.62
2019-05-03T01:47:55.301Z,24.10
2019-05-03T01:50:27.559Z,23.60
2019-05-03T01:53:05.511Z,28.02
2019-05-03T01:55:52.317Z,19.23
2019-05-03T01:58:25.121Z,27.75
2019-05-03T02:01:13.959Z,21.97
2019-05-03T02:04:03.003Z,25.50
2019-05-03T02:06:33.295Z,29.95
2019-05-03T02:09:03.104Z,33.18
2019-05-03T02:11:33.420Z,30.50
2019-05-03T02:14:03.204Z,27.77
2019-05-03T02:16:33.040Z,27.13
2019-05-03T02:19:03.105Z,25.82
2019-05-03T02:21:32.994Z,21.42
2019-05-03T02:24:02.956Z,31.87
2019-05-03T02:26:32.987Z,26.97
2019-05-03T02:29:02.825Z,26.02
2019-05-03T02:31:33.031Z,26.93
2019-05-03T02:34:03.676Z,31.10
2019-05-03T02:36:33.916Z,26.25
2019-05-03T02:39:08.230Z,31.30
2019-05-03T02:41:38.067Z,26.57
2019-05-03T02:44:07.945Z,28.05
2019-05-03T02:46:39.412Z,28.10
2019-05-03T02:49:11.930Z,31.30
2019-05-03T02:51:42.561Z,33.88
2019-05-03T02:54:15.497Z,28.32
2019-05-03T02:56:46.048Z,36.98
2019-05-03T02:59:16.447Z,37.50
2019-05-03T03:01:46.936Z,23.47
2019-05-03T03:04:18.547Z,30.12
2019-05-03T03:06:49.304Z,21.85
2019-05-03T03:09:21.507Z,26.73
2019-05-03T03:11:55.756Z,25.90
2019-05-03T03:14:27.300Z,24.67
2019-05-03T03:17:00.168Z,30.12
2019-05-03T03:19:30.565Z,30.77
2019-05-03T03:22:05.895Z,23.42
2019-05-03T03:24:39.810Z,25.02
2019-05-03T03:27:12.573Z,25.32
2019-05-03T03:29:45.970Z,33.15
2019-05-03T03:32:20.095Z,37.73
2019-05-03T03:34:56.717Z,22.85
2019-05-03T03:37:26.005Z,32.98
2019-05-03T03:40:01.724Z,25.92
2019-05-03T03:42:32.370Z,27.40
2019-05-03T03:45:06.027Z,23.50
2019-05-03T03:47:38.717Z,33.92
2019-05-03T03:50:08.993Z,29.87
2019-05-03T03:52:41.949Z,21.73
2019-05-03T03:55:15.639Z,25.75
2019-05-03T03:57:46.541Z,21.90
2019-05-03T04:00:17.361Z,24.80
2019-05-03T04:02:47.187Z,31.73
2019-05-03T04:05:17.364Z,28.23
2019-05-03T04:07:47.447Z,23.07
2019-05-03T04:10:17.272Z,27.32
2019-05-03T04:12:48.223Z,24.90
2019-05-03T04:15:37.111Z,25.15
2019-05-03T04:18:21.260Z,20.62
2019-05-03T04:20:52.458Z,29.75
2019-05-03T04:23:22.450Z,20.95
2019-05-03T04:25:52.247Z,23.05
2019-05-03T04:28:22.272Z,20.85
2019-05-03T04:30:52.067Z,22.45
2019-05-03T04:33:21.874Z,28.07
2019-05-03T04:35:51.679Z,25.20
2019-05-03T04:38:21.466Z,27.62
2019-05-03T04:40:51.836Z,31.82
2019-05-03T04:43:21.656Z,27.10
2019-05-03T04:46:02.239Z,25.95
2019-05-03T04:48:32.069Z,28.25
2019-05-03T04:51:01.845Z,29.27
2019-05-03T04:53:35.805Z,24.77
2019-05-03T04:56:05.946Z,27.67
2019-05-03T04:58:36.742Z,22.98
2019-05-03T05:01:07.075Z,29.23
2019-05-03T05:03:36.960Z,31.57
2019-05-03T05:06:06.817Z,23.80
2019-05-03T05:08:36.613Z,24.80
2019-05-03T05:11:10.132Z,16.95
2019-05-03T05:13:37.841Z,23.25
2019-05-03T05:16:07.643Z,23.80
2019-05-03T05:18:39.102Z,20.70
2019-05-03T05:21:10.580Z,27.55
2019-05-03T05:24:01.061Z,20.23
2019-05-03T05:26:32.671Z,21.70
2019-05-03T05:29:20.321Z,29.67
2019-05-03T05:31:52.032Z,20.00
2019-05-03T05:34:21.816Z,22.35
2019-05-03T05:36:51.644Z,23.85
2019-05-03T05:39:21.427Z,23.00
2019-05-03T05:41:51.207Z,30.23
2019-05-03T05:44:21.047Z,28.92
2019-05-03T05:46:54.255Z,27.73
2019-05-03T05:49:40.197Z,21.27
2019-05-03T05:52:10.965Z,23.18
2019-05-03T05:54:42.403Z,24.02
2019-05-03T05:57:34.543Z,21.90
2019-05-03T06:00:11.664Z,25.10
2019-05-03T06:02:44.624Z,20.95
2019-05-03T06:05:14.882Z,23.90
2019-05-03T06:07:54.589Z,24.15
2019-05-03T06:10:34.703Z,24.63
2019-05-03T06:13:18.538Z,31.65
2019-05-03T06:15:49.975Z,27.62
2019-05-03T06:18:32.245Z,21.57
2019-05-03T06:21:04.634Z,28.95
2019-05-03T06:23:40.075Z,23.80
2019-05-03T06:26:27.961Z,33.45
2019-05-03T06:28:58.021Z,29.25
2019-05-03T06:31:29.440Z,23.55
2019-05-03T06:33:59.306Z,23.27
2019-05-03T06:36:29.189Z,32.15
2019-05-03T06:38:59.446Z,24.05
2019-05-03T06:41:30.366Z,20.37
2019-05-03T06:44:00.177Z,20.27
2019-05-03T06:46:45.689Z,26.33
2019-05-03T06:49:17.034Z,25.20
2019-05-03T06:51:49.722Z,25.02
2019-05-03T06:54:20.632Z,19.65
2019-05-03T06:56:50.181Z,15.75
2019-05-03T06:59:37.808Z,16.37
2019-05-03T07:02:25.164Z,30.55
2019-05-03T07:04:56.937Z,28.12
2019-05-03T07:07:45.330Z,21.02
2019-05-03T07:10:28.613Z,24.77
2019-05-03T07:12:59.483Z,21.17
2019-05-03T07:15:30.407Z,19.92
2019-05-03T07:18:00.192Z,22.82
2019-05-03T07:20:31.632Z,25.12
2019-05-03T07:23:01.423Z,39.27
2019-05-03T07:25:32.195Z,29.80
2019-05-03T07:28:04.321Z,23.45
2019-05-03T07:30:36.940Z,24.95
2019-05-03T07:33:11.872Z,26.30
2019-05-03T07:35:41.653Z,29.72
2019-05-03T07:38:11.459Z,22.30
2019-05-03T07:40:41.734Z,25.60
2019-05-03T07:43:11.524Z,27.40
2019-05-03T07:45:41.329Z,32.33
2019-05-03T07:48:11.217Z,30.23
2019-05-03T07:50:40.990Z,30.75
2019-05-03T07:53:11.029Z,31.57
2019-05-03T07:55:59.138Z,33.53
2019-05-03T07:58:30.156Z,28.05
2019-05-03T08:01:07.095Z,39.20
2019-05-03T08:03:34.824Z,34.83
2019-05-03T08:06:05.365Z,40.80
2019-05-03T08:08:36.272Z,41.73
2019-05-03T08:11:06.150Z,25.85
2019-05-03T08:13:35.923Z,27.60
2019-05-03T08:16:06.020Z,24.65
2019-05-03T08:18:36.117Z,27.35
2019-05-03T08:21:06.071Z,25.62
2019-05-03T08:23:36.082Z,23.55
2019-05-03T08:26:06.223Z,28.23
2019-05-03T08:28:36.307Z,25.02
2019-05-03T08:31:08.150Z,36.03
2019-05-03T08:33:48.798Z,25.43
2019-05-03T08:36:19.623Z,15.03
2019-05-03T08:38:50.369Z,25.95
2019-05-03T08:41:22.125Z,21.52
2019-05-03T08:43:51.927Z,21.23
2019-05-03T08:46:21.719Z,25.00
2019-05-03T08:48:54.642Z,25.65
2019-05-03T08:51:25.133Z,21.20
2019-05-03T08:53:56.084Z,25.37
2019-05-03T08:56:26.101Z,22.22
2019-05-03T08:58:55.867Z,32.75
2019-05-03T09:01:25.905Z,22.32
2019-05-03T09:03:55.993Z,26.50
2019-05-03T09:06:26.378Z,26.52
2019-05-03T09:08:57.291Z,33.30
2019-05-03T09:11:33.982Z,23.27
2019-05-03T09:14:01.081Z,29.20
2019-05-03T09:16:30.942Z,27.75
2019-05-03T09:19:00.821Z,33.35
2019-05-03T09:21:31.128Z,32.05
2019-05-03T09:24:00.916Z,35.00
2019-05-03T09:26:34.828Z,23.50
2019-05-03T09:29:05.644Z,26.42
2019-05-03T09:31:35.732Z,31.25
2019-05-03T09:34:08.020Z,24.07
2019-05-03T09:36:37.439Z,31.97
2019-05-03T09:39:08.938Z,26.87
2019-05-03T09:41:38.770Z,27.22
2019-05-03T09:44:09.072Z,25.12
2019-05-03T09:46:39.908Z,25.95
2019-05-03T09:49:13.892Z,23.12
2019-05-03T09:51:44.339Z,24.47
2019-05-03T09:54:19.096Z,29.98
2019-05-03T09:57:02.055Z,32.85
2019-05-03T09:59:32.564Z,23.15
2019-05-03T10:02:04.777Z,22.85
2019-05-03T10:04:36.672Z,28.30
2019-05-03T10:07:07.392Z,26.20
2019-05-03T10:09:37.182Z,21.40
2019-05-03T10:12:10.026Z,25.77
2019-05-03T10:14:40.757Z,39.15
2019-05-03T10:17:25.195Z,34.33
2019-05-03T10:19:55.545Z,33.45
2019-05-03T10:22:28.384Z,37.50
2019-05-03T10:24:58.669Z,35.10
2019-05-03T10:27:30.158Z,41.75
2019-05-03T10:30:10.543Z,37.15
2019-05-03T10:32:35.384Z,43.17
2019-05-03T10:35:15.156Z,42.55
2019-05-03T10:37:46.351Z,43.28
2019-05-03T10:40:27.770Z,43.73
2019-05-03T10:42:57.714Z,38.53
2019-05-03T10:45:28.217Z,39.95
2019-05-03T10:47:58.710Z,32.65
2019-05-03T10:50:28.614Z,25.08
2019-05-03T10:53:00.766Z,26.90
2019-05-03T10:55:31.623Z,32.10
2019-05-03T10:58:05.300Z,32.20
2019-05-03T11:00:45.050Z,23.25
2019-05-03T11:03:08.771Z,23.45
2019-05-03T11:05:42.437Z,31.80
2019-05-03T11:08:14.441Z,25.30
2019-05-03T11:10:43.855Z,17.00
2019-05-03T11:13:15.446Z,15.03
2019-05-03T11:15:45.498Z,15.10
2019-05-03T11:18:15.294Z,14.30
2019-05-03T11:20:45.380Z,17.17
2019-05-03T11:23:15.344Z,20.12
2019-05-03T11:25:45.383Z,23.65
2019-05-03T11:28:20.661Z,23.55
2019-05-03T11:30:56.442Z,22.40
2019-05-03T11:33:24.771Z,26.00
2019-05-03T11:36:14.960Z,15.40
2019-05-03T11:38:45.700Z,26.07
2019-05-03T11:41:29.230Z,19.70
2019-05-03T11:43:47.371Z,13.72
2019-05-03T11:46:17.399Z,13.98
2019-05-03T11:48:47.219Z,14.60
2019-05-03T11:51:17.523Z,16.05
2019-05-03T11:53:47.318Z,19.25
2019-05-03T11:56:17.094Z,15.03
2019-05-03T11:58:47.159Z,14.00
2019-05-03T12:01:20.576Z,19.23
2019-05-03T12:03:50.517Z,16.65
2019-05-03T12:06:20.405Z,13.28
2019-05-03T12:08:50.935Z,15.43
2019-05-03T12:11:21.893Z,15.65
2019-05-03T12:14:02.328Z,17.45
2019-05-03T12:17:06.803Z,14.03
2019-05-03T12:18:59.473Z,15.43
2019-05-03T12:21:31.729Z,18.25
2019-05-03T12:24:03.226Z,19.48
2019-05-03T12:26:43.868Z,22.27
2019-05-03T12:29:07.637Z,24.20
2019-05-03T12:31:40.629Z,20.25
2019-05-03T12:34:10.407Z,21.12
2019-05-03T12:36:40.264Z,23.10
2019-05-03T12:39:24.384Z,24.25
2019-05-03T12:41:43.593Z,19.17
2019-05-03T12:44:15.269Z,17.80
2019-05-03T12:46:45.836Z,16.87
2019-05-03T12:49:15.649Z,17.45
2019-05-03T12:51:45.532Z,17.12
2019-05-03T12:54:15.774Z,15.40
2019-05-03T12:56:45.599Z,16.77
2019-05-03T12:59:32.263Z,15.55
2019-05-03T13:02:06.158Z,13.15
2019-05-03T13:04:38.884Z,14.87
2019-05-03T13:07:16.554Z,13.58
2019-05-03T13:09:47.377Z,14.03
2019-05-03T13:12:19.756Z,14.98
2019-05-03T13:14:49.816Z,16.32
2019-05-03T13:17:21.242Z,15.30
2019-05-03T13:19:51.981Z,22.62
2019-05-03T13:22:25.264Z,17.82
2019-05-03T13:24:54.548Z,15.78
2019-05-03T13:27:25.495Z,15.53
2019-05-03T13:29:55.943Z,22.00
2019-05-03T13:32:27.191Z,21.37
2019-05-03T13:34:58.205Z,21.93
2019-05-03T13:37:28.042Z,21.52
2019-05-03T13:39:58.791Z,25.37
2019-05-03T13:42:28.581Z,18.30
2019-05-03T13:44:58.540Z,28.57
2019-05-03T13:47:29.655Z,15.63
2019-05-03T13:50:00.766Z,20.52
2019-05-03T13:52:30.596Z,14.63
2019-05-03T13:55:00.442Z,14.90
2019-05-03T13:57:30.535Z,17.70
2019-05-03T14:00:00.782Z,18.95
2019-05-03T14:02:30.572Z,17.57
2019-05-03T14:05:00.536Z,16.48
2019-05-03T14:07:30.361Z,18.02
2019-05-03T14:10:00.320Z,16.17
2019-05-03T14:12:30.295Z,18.17
2019-05-03T14:15:00.191Z,14.93
2019-05-03T14:17:30.046Z,12.78
2019-05-03T14:20:05.449Z,23.20
2019-05-03T14:22:36.992Z,15.00
2019-05-03T14:25:08.129Z,13.72
2019-05-03T14:27:37.882Z,14.50
2019-05-03T14:30:09.530Z,18.05
2019-05-03T14:32:39.358Z,16.27
2019-05-03T14:35:09.998Z,17.90
2019-05-03T14:37:39.822Z,22.22
2019-05-03T14:40:09.818Z,37.63
2019-05-03T14:42:39.891Z,39.55
2019-05-03T14:45:09.840Z,45.70
2019-05-03T14:47:39.611Z,49.85
2019-05-03T14:50:09.888Z,43.95
2019-05-03T14:52:39.787Z,34.73
2019-05-03T14:55:28.030Z,39.27
2019-05-03T14:58:17.225Z,29.92
2019-05-03T15:00:49.113Z,26.52
2019-05-03T15:03:21.338Z,29.37
2019-05-03T15:05:52.258Z,25.30
2019-05-03T15:08:22.089Z,22.85
2019-05-03T15:10:52.165Z,24.45
2019-05-03T15:13:22.027Z,22.80
2019-05-03T15:15:51.904Z,18.92
2019-05-03T15:18:21.931Z,21.10
2019-05-03T15:20:51.939Z,22.35
2019-05-03T15:23:21.872Z,21.60
2019-05-03T15:25:51.700Z,25.82
2019-05-03T15:28:21.673Z,21.82
2019-05-03T15:30:51.864Z,25.95
2019-05-03T15:33:21.690Z,21.45
2019-05-03T15:35:51.618Z,21.87
2019-05-03T15:38:21.632Z,20.88
2019-05-03T15:40:54.595Z,16.73
2019-05-03T15:43:29.137Z,24.30
2019-05-03T15:46:11.741Z,15.18
2019-05-03T15:48:49.623Z,16.82
2019-05-03T15:51:20.641Z,16.65
2019-05-03T15:53:50.415Z,15.75
2019-05-03T15:56:20.314Z,19.07
2019-05-03T15:58:50.137Z,19.70
2019-05-03T16:01:20.079Z,17.05
2019-05-03T16:03:50.075Z,15.30
2019-05-03T16:06:24.839Z,15.85
2019-05-03T16:08:55.439Z,19.20
2019-05-03T16:11:25.536Z,19.30
2019-05-03T16:13:56.105Z,16.77
2019-05-03T16:16:26.329Z,16.12
2019-05-03T16:18:56.531Z,14.98
2019-05-03T16:21:29.314Z,13.60
2019-05-03T16:23:59.199Z,19.45
2019-05-03T16:26:30.394Z,14.68
2019-05-03T16:29:04.666Z,16.77
2019-05-03T16:31:39.358Z,12.80
2019-05-03T16:34:10.423Z,15.38
2019-05-03T16:36:41.170Z,14.40
2019-05-03T16:39:11.256Z,12.40
2019-05-03T16:41:41.254Z,15.55
2019-05-03T16:44:11.210Z,16.52
2019-05-03T16:46:41.048Z,19.95
2019-05-03T16:49:11.103Z,20.37
2019-05-03T16:51:40.892Z,18.92
2019-05-03T16:54:11.294Z,15.68
2019-05-03T16:56:41.124Z,16.15
2019-05-03T16:59:10.945Z,19.50
2019-05-03T17:01:41.925Z,19.52
2019-05-03T17:04:28.698Z,22.15
2019-05-03T17:07:05.395Z,16.05
2019-05-03T17:09:40.443Z,21.17
2019-05-03T17:12:14.940Z,20.62
2019-05-03T17:14:44.154Z,19.98
2019-05-03T17:17:14.818Z,17.32
2019-05-03T17:19:45.008Z,14.87
2019-05-03T17:22:17.246Z,14.80
2019-05-03T17:24:48.717Z,18.12
2019-05-03T17:27:19.326Z,20.48
2019-05-03T17:29:50.568Z,23.38
2019-05-03T17:32:20.402Z,17.20
2019-05-03T17:34:50.811Z,18.60
2019-05-03T17:37:23.059Z,23.60
2019-05-03T17:39:54.747Z,20.52
2019-05-03T17:42:45.110Z,19.05
2019-05-03T17:45:18.465Z,19.45
2019-05-03T17:47:49.308Z,23.60
2019-05-03T17:50:19.310Z,19.90
2019-05-03T17:52:57.012Z,23.07
2019-05-03T17:55:40.513Z,26.37
2019-05-03T17:58:29.434Z,22.48
2019-05-03T18:01:05.629Z,20.43
2019-05-03T18:03:37.143Z,19.25
2019-05-03T18:06:12.260Z,22.00
2019-05-03T18:08:44.599Z,17.85
2019-05-03T18:11:16.559Z,17.77
2019-05-03T18:13:46.407Z,22.90
2019-05-03T18:16:16.318Z,23.42
2019-05-03T18:18:46.870Z,19.92
2019-05-03T18:21:18.110Z,19.15
2019-05-03T18:23:47.934Z,18.27
2019-05-03T18:26:20.551Z,24.00
2019-05-03T18:28:50.338Z,23.15
2019-05-03T18:31:20.437Z,26.02
2019-05-03T18:33:51.083Z,26.97
2019-05-03T18:36:22.436Z,29.52
2019-05-03T18:38:55.019Z,21.65
2019-05-03T18:41:25.869Z,23.18
2019-05-03T18:44:16.897Z,23.92
2019-05-03T18:47:01.822Z,24.18
2019-05-03T18:49:35.224Z,23.38
2019-05-03T18:52:06.113Z,22.62
2019-05-03T18:54:36.130Z,19.70
2019-05-03T18:57:05.970Z,23.87
2019-05-03T18:59:36.247Z,25.15
2019-05-03T19:02:06.369Z,24.92
2019-05-03T19:04:38.018Z,19.92
2019-05-03T19:07:10.080Z,19.37
2019-05-03T19:09:52.654Z,22.73
2019-05-03T19:12:31.465Z,24.92
2019-05-03T19:15:05.185Z,23.77
2019-05-03T19:17:41.322Z,23.83
2019-05-03T19:20:12.937Z,23.57
2019-05-03T19:22:43.483Z,23.50
2019-05-03T19:25:15.187Z,24.75
2019-05-03T19:27:45.734Z,30.08
2019-05-03T19:30:15.963Z,33.48
2019-05-03T19:32:45.744Z,27.82
2019-05-03T19:35:15.808Z,35.92
2019-05-03T19:37:46.654Z,32.60
2019-05-03T19:40:17.233Z,34.78
2019-05-03T19:42:47.377Z,27.13
2019-05-03T19:45:18.090Z,24.35
2019-05-03T19:47:47.893Z,22.48
2019-05-03T19:50:17.936Z,25.72
2019-05-03T19:53:04.992Z,28.27
2019-05-03T19:55:35.065Z,26.90
2019-05-03T19:58:08.883Z,31.37
2019-05-03T20:00:58.300Z,26.70
2019-05-03T20:03:30.252Z,24.20
2019-05-03T20:06:08.450Z,25.82
2019-05-03T20:08:41.362Z,26.42
2019-05-03T20:11:14.824Z,26.95
2019-05-03T20:13:45.908Z,23.95
2019-05-03T20:16:17.181Z,26.90
2019-05-03T20:18:46.965Z,22.45
2019-05-03T20:21:16.895Z,25.80
2019-05-03T20:23:47.095Z,22.90
2019-05-03T20:26:18.642Z,17.07
2019-05-03T20:28:48.424Z,19.62
2019-05-03T20:31:19.756Z,21.50
2019-05-03T20:33:49.573Z,23.18
2019-05-03T20:36:19.420Z,19.92
2019-05-03T20:38:49.460Z,23.00
2019-05-03T20:41:19.375Z,19.60
2019-05-03T20:43:59.807Z,20.57
2019-05-03T20:46:31.438Z,24.57
2019-05-03T20:49:04.439Z,19.05
2019-05-03T20:51:34.677Z,21.90
2019-05-03T20:54:06.304Z,21.68
2019-05-03T20:56:36.810Z,20.23
2019-05-03T20:59:09.560Z,23.27
2019-05-03T21:01:39.642Z,25.75
2019-05-03T21:04:10.381Z,18.50
2019-05-03T21:06:40.653Z,20.60
2019-05-03T21:09:12.049Z,21.27
2019-05-03T21:11:44.595Z,23.62
2019-05-03T21:14:15.500Z,26.35
2019-05-03T21:16:48.379Z,31.60
2019-05-03T21:19:19.819Z,23.62
2019-05-03T21:21:55.732Z,19.65
2019-05-03T21:24:34.856Z,22.07
2019-05-03T21:27:05.568Z,21.15
2019-05-03T21:29:38.202Z,25.25
2019-05-03T21:32:07.988Z,22.67
2019-05-03T21:34:39.497Z,20.60
2019-05-03T21:37:09.272Z,19.17
2019-05-03T21:39:40.102Z,20.43
2019-05-03T21:42:09.934Z,27.07
2019-05-03T21:44:41.155Z,18.87
2019-05-03T21:47:20.026Z,23.40
2019-05-03T21:49:53.314Z,28.12
2019-05-03T21:52:24.982Z,26.45
2019-05-03T21:54:57.061Z,22.35
2019-05-03T21:57:27.109Z,22.90
2019-05-03T21:59:57.206Z,18.35
2019-05-03T22:02:27.531Z,21.02
2019-05-03T22:04:57.457Z,20.08
2019-05-03T22:07:27.597Z,23.18
2019-05-03T22:09:59.714Z,19.40
2019-05-03T22:12:29.502Z,28.38
2019-05-03T22:15:00.938Z,21.95
2019-05-03T22:17:50.313Z,26.25
2019-05-03T22:20:21.975Z,23.70
2019-05-03T22:23:10.405Z,25.10
2019-05-03T22:25:41.851Z,29.72
2019-05-03T22:28:11.824Z,21.00
2019-05-03T22:30:41.712Z,20.57
2019-05-03T22:33:14.426Z,20.52
2019-05-03T22:35:44.498Z,26.15
2019-05-03T22:38:15.270Z,29.80
2019-05-03T22:40:46.818Z,21.35
2019-05-03T22:43:18.236Z,23.60
2019-05-03T22:45:48.072Z,19.80
2019-05-03T22:48:18.275Z,23.90
2019-05-03T22:50:48.293Z,21.52
2019-05-03T22:53:20.757Z,26.23
2019-05-03T22:55:50.579Z,29.12
2019-05-03T22:58:21.175Z,25.70
2019-05-03T23:00:51.295Z,26.75
2019-05-03T23:03:22.691Z,26.35
2019-05-03T23:05:54.797Z,25.32
2019-05-03T23:08:25.378Z,23.95
2019-05-03T23:10:55.319Z,17.07
2019-05-03T23:13:25.963Z,21.17
2019-05-03T23:15:55.845Z,19.75
2019-05-03T23:18:25.696Z,22.37
2019-05-03T23:21:16.049Z,18.62
2019-05-03T23:23:51.353Z,16.48
2019-05-03T23:26:23.028Z,14.60
2019-05-03T23:28:55.114Z,18.98
2019-05-03T23:31:26.125Z,14.10
2019-05-03T23:33:55.924Z,18.90
2019-05-03T23:36:33.684Z,15.60
2019-05-03T23:38:59.005Z,13.90
2019-05-03T23:41:30.514Z,21.37
2019-05-03T23:44:00.291Z,13.98
2019-05-03T23:46:34.696Z,18.90
2019-05-03T23:49:05.530Z,17.57
2019-05-03T23:51:52.754Z,16.17
2019-05-03T23:54:25.770Z,12.23
2019-05-03T23:56:55.543Z,12.28
2019-05-03T23:59:26.512Z,14.40
